createdAt,value
2023-03-04T00:00:11.350Z,71.76
2023-03-04T00:02:39.958Z,72.12
2023-03-04T00:05:09.958Z,71.56
2023-03-04T00:07:38.615Z,72.32
2023-03-04T00:10:10.648Z,72.56
2023-03-04T00:12:39.510Z,72.21
2023-03-04T00:15:09.815Z,72.58
2023-03-04T00:17:38.135Z,72.29
2023-03-04T00:20:09.224Z,72.16
2023-03-04T00:22:38.067Z,71.58
2023-03-04T00:25:07.864Z,72.07
2023-03-04T00:27:37.711Z,72.16
2023-03-04T00:30:08.336Z,71.90
2023-03-04T00:32:36.910Z,71.84
2023-03-04T00:35:06.532Z,72.25
2023-03-04T00:37:35.169Z,72.21
2023-03-04T00:40:04.254Z,72.28
2023-03-04T00:42:32.546Z,72.31
2023-03-04T00:45:02.279Z,72.34
2023-03-04T00:47:30.629Z,72.18
2023-03-04T00:49:59.097Z,72.66
2023-03-04T00:52:27.689Z,72.76
2023-03-04T00:54:56.006Z,72.25
2023-03-04T00:57:24.435Z,72.74
2023-03-04T00:59:52.934Z,71.82
2023-03-04T01:02:22.732Z,73.05
2023-03-04T01:04:51.247Z,71.91
2023-03-04T01:07:19.757Z,72.75
2023-03-04T01:09:48.087Z,72.49
2023-03-04T01:12:16.398Z,72.56
2023-03-04T01:14:44.899Z,72.50
2023-03-04T01:17:13.542Z,72.36
2023-03-04T01:19:49.174Z,73.27
2023-03-04T01:22:19.053Z,73.16
2023-03-04T01:24:47.577Z,72.20
2023-03-04T01:27:16.070Z,72.98
2023-03-04T01:29:44.566Z,72.38
2023-03-04T01:32:12.865Z,73.41
2023-03-04T01:34:42.961Z,73.75
2023-03-04T01:37:11.228Z,73.36
2023-03-04T01:39:39.756Z,73.51
2023-03-04T01:42:15.024Z,73.79
2023-03-04T01:44:43.987Z,73.55
2023-03-04T01:47:12.827Z,73.53
2023-03-04T01:49:42.717Z,73.72
2023-03-04T01:52:14.528Z,73.98
2023-03-04T01:54:43.208Z,73.75
2023-03-04T01:57:20.110Z,73.50
2023-03-04T01:59:49.466Z,73.88
2023-03-04T02:02:17.940Z,73.48
2023-03-04T02:04:47.639Z,73.92
2023-03-04T02:07:16.053Z,73.45
2023-03-04T02:09:44.526Z,74.02
2023-03-04T02:12:12.916Z,73.77
2023-03-04T02:14:41.366Z,74.01
2023-03-04T02:17:13.643Z,73.86
2023-03-04T02:19:50.332Z,73.84
2023-03-04T02:22:18.838Z,73.43
2023-03-04T02:24:53.242Z,73.86
2023-03-04T02:27:23.241Z,73.71
2023-03-04T02:29:51.695Z,73.81
2023-03-04T02:32:20.270Z,74.05
2023-03-04T02:35:00.088Z,73.60
2023-03-04T02:37:28.720Z,74.01
2023-03-04T02:39:57.531Z,74.09
2023-03-04T02:42:27.394Z,73.59
2023-03-04T02:45:02.547Z,73.69
2023-03-04T02:47:31.005Z,73.59
2023-03-04T02:49:59.364Z,73.56
2023-03-04T02:52:28.468Z,73.80
2023-03-04T02:54:56.949Z,73.33
2023-03-04T02:57:26.833Z,73.20
2023-03-04T02:59:55.300Z,73.94
2023-03-04T03:02:23.986Z,74.06
2023-03-04T03:04:52.487Z,74.54
2023-03-04T03:07:20.975Z,73.99
2023-03-04T03:09:49.269Z,74.61
2023-03-04T03:12:17.678Z,74.52
2023-03-04T03:14:47.629Z,74.61
2023-03-04T03:17:16.141Z,74.92
2023-03-04T03:19:44.747Z,74.61
2023-03-04T03:22:13.197Z,75.07
2023-03-04T03:24:41.662Z,75.41
2023-03-04T03:27:10.068Z,74.54
2023-03-04T03:29:38.446Z,75.21
2023-03-04T03:32:08.345Z,74.65
2023-03-04T03:34:36.727Z,75.19
2023-03-04T03:37:05.083Z,75.21
2023-03-04T03:39:33.555Z,74.66
2023-03-04T03:42:01.944Z,75.57
2023-03-04T03:44:30.378Z,75.71
2023-03-04T03:46:59.169Z,75.69
2023-03-04T03:49:29.174Z,75.32
2023-03-04T03:51:57.594Z,76.00
2023-03-04T03:54:26.160Z,75.53
2023-03-04T03:56:54.564Z,75.46
2023-03-04T03:59:24.206Z,75.42
2023-03-04T04:01:52.642Z,75.91
2023-03-04T04:04:21.108Z,76.48
2023-03-04T04:06:50.950Z,75.47
2023-03-04T04:09:19.559Z,76.71
2023-03-04T04:11:48.016Z,75.83
2023-03-04T04:14:17.205Z,76.80
2023-03-04T04:16:45.831Z,76.90
2023-03-04T04:19:19.491Z,76.28
2023-03-04T04:21:50.769Z,76.86
2023-03-04T04:24:19.344Z,76.70
2023-03-04T04:26:47.983Z,76.33
2023-03-04T04:29:17.507Z,76.99
2023-03-04T04:31:46.264Z,76.76
2023-03-04T04:34:15.324Z,76.50
2023-03-04T04:36:44.013Z,77.26
2023-03-04T04:39:14.001Z,77.36
2023-03-04T04:41:44.969Z,77.03
2023-03-04T04:44:14.352Z,76.96
2023-03-04T04:46:43.039Z,78.25
2023-03-04T04:49:11.387Z,77.40
2023-03-04T04:51:40.609Z,78.32
2023-03-04T04:54:09.033Z,77.80
2023-03-04T04:56:38.901Z,78.09
2023-03-04T04:59:08.842Z,77.95
2023-03-04T05:01:38.746Z,77.98
2023-03-04T05:04:07.293Z,77.99
2023-03-04T05:06:35.938Z,78.31
2023-03-04T05:09:05.004Z,78.54
2023-03-04T05:11:33.594Z,78.10
2023-03-04T05:14:03.458Z,78.55
2023-03-04T05:16:31.901Z,79.17
2023-03-04T05:19:00.269Z,78.69
2023-03-04T05:21:29.047Z,79.16
2023-03-04T05:23:57.487Z,79.99
2023-03-04T05:26:25.810Z,80.29
2023-03-04T05:28:54.123Z,80.77
2023-03-04T05:31:23.943Z,80.86
2023-03-04T05:33:52.390Z,81.43
2023-03-04T05:36:21.130Z,81.25
2023-03-04T05:38:49.534Z,81.73
2023-03-04T05:41:20.454Z,82.17
2023-03-04T05:43:48.873Z,82.19
2023-03-04T05:46:19.324Z,82.34
2023-03-04T05:48:49.404Z,83.19
2023-03-04T05:51:18.237Z,83.53
2023-03-04T05:53:47.560Z,83.70
2023-03-04T05:56:18.135Z,83.26
2023-03-04T05:58:47.589Z,83.53
2023-03-04T06:01:17.456Z,83.84
2023-03-04T06:03:48.560Z,84.58
2023-03-04T06:06:18.636Z,84.21
2023-03-04T06:08:52.400Z,84.84
2023-03-04T06:11:21.001Z,84.86
2023-03-04T06:13:49.576Z,84.61
2023-03-04T06:16:17.985Z,85.19
2023-03-04T06:18:46.368Z,85.44
2023-03-04T06:21:14.687Z,85.27
2023-03-04T06:23:45.291Z,85.04
2023-03-04T06:26:15.774Z,86.15
2023-03-04T06:28:44.700Z,85.30
2023-03-04T06:31:13.181Z,86.02
2023-03-04T06:33:41.920Z,85.96
2023-03-04T06:36:10.747Z,86.23
2023-03-04T06:38:39.230Z,86.82
2023-03-04T06:41:11.634Z,86.37
2023-03-04T06:43:40.400Z,86.75
2023-03-04T06:46:10.075Z,87.25
2023-03-04T06:48:38.484Z,87.27
2023-03-04T06:51:08.357Z,87.63
2023-03-04T06:53:37.279Z,87.74
2023-03-04T06:56:06.985Z,87.45
2023-03-04T06:58:37.095Z,87.77
2023-03-04T07:01:17.223Z,87.32
2023-03-04T07:03:46.360Z,87.87
2023-03-04T07:06:17.675Z,87.80
2023-03-04T07:08:46.639Z,87.95
2023-03-04T07:11:16.269Z,87.90
2023-03-04T07:13:47.073Z,87.69
2023-03-04T07:16:18.747Z,88.23
2023-03-04T07:18:48.194Z,88.29
2023-03-04T07:21:18.154Z,88.38
2023-03-04T07:23:47.048Z,88.29
2023-03-04T07:26:15.762Z,88.54
2023-03-04T07:28:46.012Z,88.35
2023-03-04T07:31:22.193Z,88.54
2023-03-04T07:33:51.518Z,88.39
2023-03-04T07:36:22.114Z,88.45
2023-03-04T07:38:52.095Z,89.32
2023-03-04T07:41:20.569Z,89.22
2023-03-04T07:43:50.469Z,88.81
2023-03-04T07:46:20.232Z,88.28
2023-03-04T07:48:48.944Z,88.67
2023-03-04T07:51:20.184Z,88.55
2023-03-04T07:53:51.229Z,88.49
2023-03-04T07:56:23.996Z,88.95
2023-03-04T07:58:54.519Z,88.98
2023-03-04T08:01:25.810Z,88.24
2023-03-04T08:03:54.505Z,88.61
2023-03-04T08:06:24.094Z,88.28
2023-03-04T08:08:58.802Z,89.42
2023-03-04T08:11:27.638Z,88.79
2023-03-04T08:13:58.363Z,88.64
2023-03-04T08:16:27.728Z,88.87
2023-03-04T08:18:59.010Z,89.03
2023-03-04T08:21:28.917Z,89.27
2023-03-04T08:23:59.193Z,89.58
2023-03-04T08:26:33.931Z,88.79
2023-03-04T08:29:05.813Z,88.08
2023-03-04T08:31:35.012Z,88.60
2023-03-04T08:34:04.652Z,89.06
2023-03-04T08:36:32.977Z,88.95
2023-03-04T08:39:01.539Z,89.09
2023-03-04T08:41:30.089Z,88.68
2023-03-04T08:44:00.211Z,87.82
2023-03-04T08:46:30.284Z,88.52
2023-03-04T08:48:59.076Z,88.27
2023-03-04T08:51:27.586Z,88.37
2023-03-04T08:53:56.380Z,89.01
2023-03-04T08:56:25.361Z,88.09
2023-03-04T08:58:54.320Z,88.45
2023-03-04T09:01:22.840Z,88.06
2023-03-04T09:03:53.534Z,88.68
2023-03-04T09:06:22.127Z,87.96
2023-03-04T09:08:50.746Z,87.09
2023-03-04T09:11:19.506Z,86.01
2023-03-04T09:13:47.938Z,86.69
2023-03-04T09:16:16.982Z,85.69
2023-03-04T09:18:46.297Z,86.17
2023-03-04T09:21:17.066Z,86.26
2023-03-04T09:23:45.713Z,86.59
2023-03-04T09:26:24.919Z,85.97
2023-03-04T09:28:54.655Z,85.15
2023-03-04T09:31:23.381Z,85.06
2023-03-04T09:33:52.736Z,84.66
2023-03-04T09:36:23.356Z,84.11
2023-03-04T09:38:52.151Z,83.67
2023-03-04T09:41:24.812Z,83.29
2023-03-04T09:43:55.812Z,83.38
2023-03-04T09:46:35.395Z,82.63
2023-03-04T09:49:07.124Z,82.42
2023-03-04T09:51:52.595Z,82.31
2023-03-04T09:54:52.260Z,81.13
2023-03-04T09:57:32.581Z,81.30
2023-03-04T10:00:19.997Z,81.77
2023-03-04T10:03:09.886Z,82.68
2023-03-04T10:05:44.396Z,83.31
2023-03-04T10:08:42.605Z,83.58
2023-03-04T10:11:17.352Z,83.50
2023-03-04T10:14:05.616Z,83.17
2023-03-04T10:16:42.052Z,83.49
2023-03-04T10:19:38.828Z,83.03
2023-03-04T10:22:21.607Z,82.24
2023-03-04T10:24:57.908Z,82.45
2023-03-04T10:27:30.249Z,81.90
2023-03-04T10:30:00.562Z,82.23
2023-03-04T10:32:28.916Z,82.89
2023-03-04T10:34:57.563Z,82.09
2023-03-04T10:37:26.026Z,81.65
2023-03-04T10:39:56.081Z,82.27
2023-03-04T10:42:37.980Z,81.51
2023-03-04T10:45:21.824Z,80.50
2023-03-04T10:47:58.796Z,79.15
2023-03-04T10:50:29.505Z,78.47
2023-03-04T10:52:58.643Z,78.75
2023-03-04T10:55:31.359Z,77.08
2023-03-04T10:58:06.514Z,76.24
2023-03-04T11:00:37.121Z,75.33
2023-03-04T11:03:30.450Z,74.95
2023-03-04T11:06:20.616Z,74.58
2023-03-04T11:08:56.825Z,74.36
2023-03-04T11:11:34.815Z,73.10
2023-03-04T11:14:13.032Z,73.23
2023-03-04T11:16:41.567Z,72.15
2023-03-04T11:19:17.764Z,72.09
2023-03-04T11:21:48.361Z,71.13
2023-03-04T11:24:28.888Z,71.01
2023-03-04T11:27:05.811Z,70.33
2023-03-04T11:29:40.018Z,70.38
2023-03-04T11:32:16.031Z,68.62
2023-03-04T11:34:52.498Z,68.32
2023-03-04T11:37:30.477Z,68.22
2023-03-04T11:40:05.344Z,68.55
2023-03-04T11:42:42.848Z,69.73
2023-03-04T11:45:27.934Z,69.67
2023-03-04T11:48:06.221Z,68.80
2023-03-04T11:50:47.684Z,68.64
2023-03-04T11:53:42.935Z,69.08
2023-03-04T11:56:28.599Z,69.02
2023-03-04T11:59:51.955Z,68.64
2023-03-04T12:02:23.352Z,70.05
2023-03-04T12:05:21.257Z,70.79
2023-03-04T12:08:25.928Z,70.86
2023-03-04T12:11:04.305Z,70.26
2023-03-04T12:14:09.447Z,70.64
2023-03-04T12:16:58.388Z,70.60
2023-03-04T12:19:38.915Z,69.50
2023-03-04T12:22:29.505Z,69.50
2023-03-04T12:25:39.220Z,69.25
2023-03-04T12:28:53.154Z,68.59
2023-03-04T12:31:35.899Z,67.76
2023-03-04T12:34:32.662Z,66.95
2023-03-04T12:37:36.923Z,66.97
2023-03-04T12:40:27.341Z,66.99
2023-03-04T12:43:11.147Z,67.08
2023-03-04T12:45:48.759Z,66.08
2023-03-04T12:48:30.647Z,66.68
2023-03-04T12:51:24.188Z,65.96
2023-03-04T12:54:06.552Z,65.23
2023-03-04T12:56:43.594Z,64.65
2023-03-04T12:59:19.217Z,64.56
2023-03-04T13:01:57.160Z,65.93
2023-03-04T13:04:41.404Z,65.26
2023-03-04T13:07:18.484Z,64.97
2023-03-04T13:09:53.280Z,64.93
2023-03-04T13:12:22.985Z,64.50
2023-03-04T13:15:29.498Z,65.22
2023-03-04T13:17:59.518Z,64.46
2023-03-04T13:20:38.381Z,64.87
2023-03-04T13:23:32.110Z,64.66
2023-03-04T13:26:33.056Z,65.23
2023-03-04T13:29:36.932Z,64.98
2023-03-04T13:32:11.546Z,63.69
2023-03-04T13:34:49.661Z,63.58
2023-03-04T13:37:35.942Z,61.71
2023-03-04T13:40:38.035Z,62.27
2023-03-04T13:43:30.110Z,62.40
2023-03-04T13:45:59.105Z,62.66
2023-03-04T13:48:32.901Z,63.35
2023-03-04T13:51:01.578Z,62.56
2023-03-04T13:53:53.120Z,63.36
2023-03-04T13:56:34.450Z,63.55
2023-03-04T13:59:27.065Z,62.49
2023-03-04T14:02:04.981Z,62.81
2023-03-04T14:04:36.797Z,60.76
2023-03-04T14:07:25.630Z,60.20
2023-03-04T14:10:02.471Z,61.26
2023-03-04T14:12:34.853Z,61.89
2023-03-04T14:15:07.463Z,62.01
2023-03-04T14:17:37.696Z,61.64
2023-03-04T14:20:08.983Z,61.79
2023-03-04T14:22:41.742Z,61.19
2023-03-04T14:25:24.844Z,61.60
2023-03-04T14:28:05.919Z,62.25
2023-03-04T14:30:43.419Z,62.23
2023-03-04T14:33:19.985Z,62.51
2023-03-04T14:35:51.006Z,62.97
2023-03-04T14:38:26.572Z,62.96
2023-03-04T14:41:00.823Z,61.92
2023-03-04T14:43:32.754Z,62.03
2023-03-04T14:46:02.993Z,61.94
2023-03-04T14:48:33.971Z,62.29
2023-03-04T14:51:03.995Z,62.71
2023-03-04T14:53:34.648Z,62.55
2023-03-04T14:56:06.322Z,62.63
2023-03-04T14:58:37.872Z,63.39
2023-03-04T15:01:17.990Z,63.00
2023-03-04T15:03:59.388Z,62.93
2023-03-04T15:06:30.855Z,63.89
2023-03-04T15:09:02.134Z,63.37
2023-03-04T15:11:33.293Z,61.83
2023-03-04T15:14:03.176Z,62.35
2023-03-04T15:16:56.256Z,61.40
2023-03-04T15:19:30.306Z,62.27
2023-03-04T15:22:06.947Z,62.51
2023-03-04T15:24:35.405Z,62.42
2023-03-04T15:27:08.141Z,62.37
2023-03-04T15:29:38.061Z,64.24
2023-03-04T15:32:07.029Z,64.97
2023-03-04T15:34:35.410Z,64.56
2023-03-04T15:37:04.230Z,65.71
2023-03-04T15:39:32.643Z,66.31
2023-03-04T15:42:02.505Z,66.17
2023-03-04T15:44:31.075Z,65.52
2023-03-04T15:47:00.790Z,65.92
2023-03-04T15:49:29.873Z,66.73
2023-03-04T15:51:58.265Z,66.69
2023-03-04T15:54:29.870Z,66.14
2023-03-04T15:57:00.115Z,65.49
2023-03-04T15:59:28.982Z,65.32
2023-03-04T16:01:57.634Z,64.46
2023-03-04T16:04:27.572Z,65.12
2023-03-04T16:06:59.343Z,64.91
2023-03-04T16:09:27.757Z,66.03
2023-03-04T16:12:01.794Z,67.01
2023-03-04T16:14:30.196Z,67.47
2023-03-04T16:16:58.580Z,68.03
2023-03-04T16:19:28.490Z,68.83
2023-03-04T16:21:57.074Z,69.08
2023-03-04T16:24:25.286Z,68.68
2023-03-04T16:26:53.874Z,68.75
2023-03-04T16:29:22.240Z,68.62
2023-03-04T16:31:50.622Z,68.90
2023-03-04T16:34:19.709Z,69.51
2023-03-04T16:36:50.653Z,68.88
2023-03-04T16:39:23.420Z,69.24
2023-03-04T16:41:52.620Z,69.41
2023-03-04T16:44:20.961Z,68.61
2023-03-04T16:46:49.582Z,69.42
2023-03-04T16:49:17.964Z,68.69
2023-03-04T16:51:51.523Z,69.33
2023-03-04T16:54:29.984Z,69.30
2023-03-04T16:56:58.991Z,68.92
2023-03-04T16:59:28.560Z,70.34
2023-03-04T17:01:57.477Z,70.43
2023-03-04T17:04:26.278Z,70.24
2023-03-04T17:06:56.108Z,70.99
2023-03-04T17:09:25.178Z,70.95
2023-03-04T17:11:53.933Z,70.94
2023-03-04T17:14:22.953Z,71.33
2023-03-04T17:16:51.444Z,71.02
2023-03-04T17:19:19.893Z,71.32
2023-03-04T17:21:48.396Z,71.49
2023-03-04T17:24:18.442Z,70.79
2023-03-04T17:26:47.006Z,71.61
2023-03-04T17:29:15.825Z,71.03
2023-03-04T17:31:44.215Z,71.53
2023-03-04T17:34:13.500Z,71.60
2023-03-04T17:36:42.084Z,72.30
2023-03-04T17:39:10.404Z,71.56
2023-03-04T17:41:40.253Z,71.83
2023-03-04T17:44:08.954Z,72.71
2023-03-04T17:46:37.197Z,73.25
2023-03-04T17:49:05.743Z,73.85
2023-03-04T17:51:37.196Z,73.99
2023-03-04T17:54:08.553Z,74.13
2023-03-04T17:56:40.641Z,74.72
2023-03-04T17:59:11.972Z,74.53
2023-03-04T18:01:41.006Z,74.43
2023-03-04T18:04:09.446Z,74.23
2023-03-04T18:06:37.840Z,74.23
2023-03-04T18:09:07.076Z,74.51
2023-03-04T18:11:40.680Z,74.51
2023-03-04T18:14:09.756Z,74.66
2023-03-04T18:16:38.126Z,74.31
2023-03-04T18:19:07.024Z,74.70
2023-03-04T18:21:35.366Z,75.44
2023-03-04T18:24:03.999Z,75.41
2023-03-04T18:26:32.416Z,75.19
2023-03-04T18:29:02.069Z,75.31
2023-03-04T18:31:32.974Z,75.35
2023-03-04T18:34:03.075Z,75.74
2023-03-04T18:36:31.944Z,75.73
2023-03-04T18:39:02.308Z,75.85
2023-03-04T18:41:30.669Z,76.44
2023-03-04T18:43:59.006Z,76.10
2023-03-04T18:46:36.192Z,76.40
2023-03-04T18:49:08.775Z,76.22
2023-03-04T18:51:37.581Z,76.46
2023-03-04T18:54:06.644Z,76.34
2023-03-04T18:56:40.059Z,76.74
2023-03-04T18:59:14.086Z,76.70
2023-03-04T19:01:44.149Z,76.61
2023-03-04T19:04:13.273Z,76.61
2023-03-04T19:06:42.005Z,76.53
2023-03-04T19:09:10.883Z,76.26
2023-03-04T19:11:39.447Z,76.46
2023-03-04T19:14:07.955Z,76.74
2023-03-04T19:16:36.879Z,76.43
2023-03-04T19:19:06.727Z,76.50
2023-03-04T19:21:40.358Z,76.26
2023-03-04T19:24:09.658Z,76.30
2023-03-04T19:26:38.017Z,76.63
2023-03-04T19:29:07.422Z,76.45
2023-03-04T19:31:41.168Z,76.03
2023-03-04T19:34:11.496Z,75.98
2023-03-04T19:36:40.221Z,75.85
2023-03-04T19:39:10.120Z,75.87
2023-03-04T19:41:40.808Z,75.74
2023-03-04T19:44:09.576Z,75.86
2023-03-04T19:46:38.084Z,75.95
2023-03-04T19:49:06.550Z,76.13
2023-03-04T19:51:36.301Z,75.75
2023-03-04T19:54:05.455Z,75.56
2023-03-04T19:56:34.018Z,75.61
2023-03-04T19:59:03.007Z,75.69
2023-03-04T20:01:34.784Z,75.80
2023-03-04T20:04:05.554Z,75.66
2023-03-04T20:06:37.406Z,75.65
2023-03-04T20:09:06.648Z,75.70
2023-03-04T20:11:41.500Z,76.08
2023-03-04T20:14:19.396Z,76.01
2023-03-04T20:16:48.088Z,76.25
2023-03-04T20:19:16.510Z,76.17
2023-03-04T20:21:46.581Z,76.00
2023-03-04T20:24:15.556Z,75.97
2023-03-04T20:26:43.947Z,76.07
2023-03-04T20:29:12.464Z,76.26
2023-03-04T20:31:41.100Z,76.23
2023-03-04T20:34:11.272Z,76.36
2023-03-04T20:36:40.011Z,76.55
2023-03-04T20:39:27.422Z,76.49
2023-03-04T20:41:56.658Z,76.60
2023-03-04T20:44:25.187Z,76.80
2023-03-04T20:46:54.337Z,76.32
2023-03-04T20:49:26.094Z,76.37
2023-03-04T20:51:58.046Z,76.78
2023-03-04T20:54:28.733Z,76.51
2023-03-04T20:56:57.435Z,76.78
2023-03-04T20:59:26.637Z,76.59
2023-03-04T21:01:56.288Z,76.89
2023-03-04T21:04:25.025Z,77.38
2023-03-04T21:06:53.932Z,77.98
2023-03-04T21:09:24.254Z,78.61
2023-03-04T21:11:54.765Z,78.60
2023-03-04T21:14:25.971Z,78.90
2023-03-04T21:16:57.587Z,78.97
2023-03-04T21:19:29.678Z,79.47
2023-03-04T21:21:59.922Z,79.30
2023-03-04T21:24:31.129Z,79.18
2023-03-04T21:27:01.648Z,79.78
2023-03-04T21:29:30.165Z,79.70
2023-03-04T21:32:13.306Z,80.70
2023-03-04T21:34:51.919Z,80.28
2023-03-04T21:37:20.857Z,80.73
2023-03-04T21:39:49.373Z,80.86
2023-03-04T21:42:19.491Z,80.90
2023-03-04T21:44:50.765Z,80.77
2023-03-04T21:47:19.742Z,81.22
2023-03-04T21:49:48.286Z,80.72
2023-03-04T21:52:16.930Z,81.32
2023-03-04T21:54:45.329Z,80.93
2023-03-04T21:57:14.438Z,81.02
2023-03-04T21:59:44.591Z,81.63
2023-03-04T22:02:16.942Z,81.63
2023-03-04T22:04:45.702Z,81.31
2023-03-04T22:07:14.635Z,81.09
2023-03-04T22:09:43.000Z,81.71
2023-03-04T22:12:11.337Z,82.17
2023-03-04T22:14:40.165Z,82.37
2023-03-04T22:17:10.084Z,82.65
2023-03-04T22:19:38.648Z,82.06
2023-03-04T22:22:07.327Z,81.75
2023-03-04T22:24:35.641Z,82.49
2023-03-04T22:27:04.213Z,82.66
2023-03-04T22:29:32.494Z,82.22
2023-03-04T22:32:00.917Z,82.10
2023-03-04T22:34:31.031Z,82.11
2023-03-04T22:36:59.511Z,82.80
2023-03-04T22:39:28.086Z,82.47
2023-03-04T22:41:56.429Z,82.47
2023-03-04T22:44:24.911Z,82.71
2023-03-04T22:46:53.378Z,82.23
2023-03-04T22:49:21.857Z,82.52
2023-03-04T22:51:51.584Z,82.86
2023-03-04T22:54:20.850Z,83.12
2023-03-04T22:56:49.251Z,82.92
2023-03-04T22:59:17.703Z,83.22
2023-03-04T23:01:46.413Z,83.04
2023-03-04T23:04:15.137Z,82.86
2023-03-04T23:06:43.942Z,83.32
2023-03-04T23:09:13.909Z,82.92
2023-03-04T23:11:43.239Z,83.35
2023-03-04T23:14:12.270Z,83.00
2023-03-04T23:16:44.360Z,83.01
2023-03-04T23:19:18.222Z,83.38
2023-03-04T23:21:46.705Z,83.62
2023-03-04T23:24:16.488Z,82.98
2023-03-04T23:26:45.591Z,83.33
2023-03-04T23:29:17.156Z,83.76
2023-03-04T23:31:45.622Z,83.50
2023-03-04T23:34:14.488Z,84.02
2023-03-04T23:36:43.388Z,83.52
2023-03-04T23:39:15.424Z,83.93
2023-03-04T23:41:44.258Z,83.71
2023-03-04T23:44:14.179Z,84.31
2023-03-04T23:46:42.648Z,84.50
2023-03-04T23:49:17.115Z,85.10
2023-03-04T23:51:46.225Z,84.57
2023-03-04T23:54:16.478Z,84.85
2023-03-04T23:56:44.834Z,84.99
2023-03-04T23:59:13.660Z,85.34
